createdAt,value
2019-04-14T00:01:10.848Z,18.00
2019-04-14T00:03:43.302Z,17.17
2019-04-14T00:06:13.766Z,18.30
2019-04-14T00:08:44.106Z,16.33
2019-04-14T00:11:14.771Z,15.77
2019-04-14T00:13:45.653Z,16.10
2019-04-14T00:16:16.370Z,17.47
2019-04-14T00:18:47.031Z,16.70
2019-04-14T00:21:19.382Z,17.87
2019-04-14T00:23:50.150Z,16.10
2019-04-14T00:26:46.697Z,18.20
2019-04-14T00:29:17.596Z,16.90
2019-04-14T00:31:50.674Z,17.63
2019-04-14T00:34:24.636Z,16.87
2019-04-14T00:37:05.655Z,16.93
2019-04-14T00:39:37.915Z,17.83
2019-04-14T00:42:10.216Z,16.33
2019-04-14T00:45:02.839Z,18.50
2019-04-14T00:47:49.760Z,19.33
2019-04-14T00:50:10.948Z,20.30
2019-04-14T00:52:41.543Z,19.00
2019-04-14T00:55:11.913Z,17.83
2019-04-14T00:57:42.261Z,19.00
2019-04-14T01:00:16.942Z,18.07
2019-04-14T01:02:45.103Z,18.07
2019-04-14T01:05:17.444Z,20.70
2019-04-14T01:07:48.060Z,18.97
2019-04-14T01:10:19.222Z,19.57
2019-04-14T01:12:49.699Z,19.10
2019-04-14T01:15:20.140Z,18.57
2019-04-14T01:17:50.660Z,20.23
2019-04-14T01:20:21.231Z,18.93
2019-04-14T01:22:51.517Z,18.67
2019-04-14T01:25:21.851Z,21.80
2019-04-14T01:27:52.195Z,20.67
2019-04-14T01:30:22.531Z,19.57
2019-04-14T01:32:52.876Z,19.57
2019-04-14T01:35:24.921Z,19.67
2019-04-14T01:37:55.313Z,19.03
2019-04-14T01:40:25.645Z,22.37
2019-04-14T01:42:57.223Z,18.97
2019-04-14T01:45:27.610Z,20.80
2019-04-14T01:47:57.945Z,19.50
2019-04-14T01:50:52.215Z,20.03
2019-04-14T01:53:30.134Z,22.40
2019-04-14T01:56:05.642Z,20.20
2019-04-14T01:58:40.408Z,22.13
2019-04-14T02:01:15.554Z,22.90
2019-04-14T02:03:45.897Z,24.40
2019-04-14T02:06:16.230Z,19.03
2019-04-14T02:08:47.951Z,21.10
2019-04-14T02:11:20.483Z,20.10
2019-04-14T02:13:50.976Z,19.60
2019-04-14T02:16:29.283Z,19.37
2019-04-14T02:18:54.959Z,23.97
2019-04-14T02:21:25.979Z,20.83
2019-04-14T02:23:56.513Z,21.70
2019-04-14T02:26:26.930Z,21.17
2019-04-14T02:28:57.261Z,22.00
2019-04-14T02:31:53.015Z,23.13
2019-04-14T02:34:34.567Z,21.27
2019-04-14T02:42:34.300Z,21.40
2019-04-14T02:47:48.975Z,23.37
2019-04-14T02:49:57.715Z,20.93
2019-04-14T03:00:11.308Z,25.40
2019-04-14T03:02:44.160Z,23.80
2019-04-14T03:05:13.265Z,23.67
2019-04-14T03:07:46.237Z,25.50
2019-04-14T03:10:17.899Z,24.47
2019-04-14T03:12:48.760Z,22.63
2019-04-14T03:18:20.445Z,21.87
2019-04-14T03:23:24.925Z,23.80
2019-04-14T03:25:46.940Z,22.33
2019-04-14T03:28:30.539Z,24.53
2019-04-14T03:34:11.120Z,25.47
2019-04-14T03:38:36.917Z,24.50
2019-04-14T03:41:17.272Z,22.53
2019-04-14T03:43:39.347Z,22.60
2019-04-14T03:46:19.394Z,24.10
2019-04-14T03:51:26.369Z,24.00
2019-04-14T03:53:47.274Z,24.17
2019-04-14T03:56:06.899Z,25.10
2019-04-14T03:58:33.619Z,28.60
2019-04-14T04:01:04.086Z,26.17
2019-04-14T04:03:34.657Z,23.47
2019-04-14T04:06:07.575Z,25.70
2019-04-14T04:08:37.998Z,28.57
2019-04-14T04:11:28.015Z,24.90
2019-04-14T04:13:58.522Z,28.07
2019-04-14T04:16:46.650Z,25.57
2019-04-14T04:19:19.739Z,22.83
2019-04-14T04:21:53.046Z,26.00
2019-04-14T04:24:41.678Z,27.43
2019-04-14T04:27:20.060Z,23.83
2019-04-14T04:30:08.069Z,22.73
2019-04-14T04:32:49.421Z,21.73
2019-04-14T04:35:39.746Z,24.33
2019-04-14T04:38:11.906Z,24.33
2019-04-14T04:40:42.257Z,24.30
2019-04-14T04:43:12.846Z,26.00
2019-04-14T04:45:43.463Z,24.37
2019-04-14T04:48:26.490Z,23.90
2019-04-14T04:50:56.825Z,24.77
2019-04-14T04:53:27.164Z,27.45
2019-04-14T04:55:57.518Z,23.33
2019-04-14T04:58:28.395Z,24.37
2019-04-14T05:00:59.599Z,22.37
2019-04-14T05:03:42.874Z,24.83
2019-04-14T05:06:48.340Z,22.03
2019-04-14T05:09:27.508Z,23.47
2019-04-14T05:12:15.842Z,26.03
2019-04-14T05:14:57.063Z,25.43
2019-04-14T05:17:38.868Z,23.00
2019-04-14T05:20:11.398Z,25.93
2019-04-14T05:22:41.973Z,24.23
2019-04-14T05:25:14.534Z,22.47
2019-04-14T05:27:45.238Z,22.80
2019-04-14T05:30:15.625Z,26.87
2019-04-14T05:32:47.968Z,22.47
2019-04-14T05:35:18.488Z,25.50
2019-04-14T05:37:48.808Z,21.87
2019-04-14T05:40:19.159Z,24.50
2019-04-14T05:42:49.499Z,22.07
2019-04-14T05:45:19.938Z,24.32
2019-04-14T05:47:50.259Z,23.83
2019-04-14T05:50:20.594Z,18.73
2019-04-14T05:52:51.480Z,23.17
2019-04-14T05:55:22.063Z,21.55
2019-04-14T05:57:52.583Z,18.48
2019-04-14T06:00:36.352Z,22.22
2019-04-14T06:03:06.679Z,20.93
2019-04-14T06:05:38.199Z,21.80
2019-04-14T06:08:08.621Z,20.70
2019-04-14T06:10:38.953Z,19.45
2019-04-14T06:13:11.700Z,22.02
2019-04-14T06:15:41.345Z,23.73
2019-04-14T06:18:11.689Z,27.22
2019-04-14T06:20:42.029Z,17.80
2019-04-14T06:23:12.375Z,21.73
2019-04-14T06:25:42.711Z,24.40
2019-04-14T06:28:32.563Z,21.48
2019-04-14T06:31:10.981Z,22.07
2019-04-14T06:33:49.120Z,19.75
2019-04-14T06:36:37.590Z,19.98
2019-04-14T06:39:13.158Z,22.37
2019-04-14T06:41:43.499Z,24.47
2019-04-14T06:44:13.837Z,22.15
2019-04-14T06:46:44.189Z,25.57
2019-04-14T06:49:14.518Z,23.05
2019-04-14T06:51:44.864Z,23.60
2019-04-14T06:54:15.208Z,25.75
2019-04-14T06:56:45.540Z,25.35
2019-04-14T06:59:15.879Z,25.17
2019-04-14T07:01:46.226Z,24.45
2019-04-14T07:04:16.561Z,22.05
2019-04-14T07:06:46.920Z,22.13
2019-04-14T07:09:17.328Z,21.60
2019-04-14T07:11:47.661Z,22.22
2019-04-14T07:14:18.002Z,22.95
2019-04-14T07:16:51.214Z,24.12
2019-04-14T07:19:20.386Z,22.00
2019-04-14T07:21:50.742Z,22.80
2019-04-14T07:24:21.081Z,23.35
2019-04-14T07:26:51.417Z,22.98
2019-04-14T07:29:22.429Z,26.40
2019-04-14T07:31:54.401Z,24.12
2019-04-14T07:34:36.564Z,22.45
2019-04-14T07:37:23.518Z,22.02
2019-04-14T07:39:55.520Z,24.35
2019-04-14T07:42:33.406Z,22.77
2019-04-14T07:45:08.334Z,24.52
2019-04-14T07:47:40.413Z,20.10
2019-04-14T07:50:30.600Z,18.77
2019-04-14T07:53:18.914Z,19.67
2019-04-14T07:55:50.908Z,19.12
2019-04-14T07:58:22.907Z,18.62
2019-04-14T08:00:55.236Z,20.80
2019-04-14T08:03:40.550Z,19.98
2019-04-14T08:06:11.193Z,19.40
2019-04-14T08:08:41.535Z,20.95
2019-04-14T08:11:12.560Z,19.55
2019-04-14T08:13:42.902Z,19.50
2019-04-14T08:16:13.236Z,18.60
2019-04-14T08:18:43.582Z,17.95
2019-04-14T08:21:13.925Z,21.15
2019-04-14T08:23:44.282Z,18.87
2019-04-14T08:26:14.638Z,18.45
2019-04-14T08:28:45.010Z,16.20
2019-04-14T08:31:15.403Z,17.60
2019-04-14T08:47:26.239Z,17.42
2019-04-14T08:50:01.334Z,17.05
2019-04-14T08:52:36.439Z,17.10
2019-04-14T08:55:15.247Z,14.80
2019-04-14T08:57:56.431Z,15.68
2019-04-14T09:00:31.023Z,17.95
2019-04-14T09:03:05.694Z,16.97
2019-04-14T09:05:43.301Z,16.77
2019-04-14T09:08:17.976Z,16.70
2019-04-14T09:10:58.778Z,15.83
2019-04-14T09:13:29.120Z,17.65
2019-04-14T09:15:59.490Z,17.45
2019-04-14T09:18:29.859Z,18.23
2019-04-14T09:21:00.193Z,16.32
2019-04-14T09:23:31.608Z,17.80
2019-04-14T09:26:01.950Z,16.35
2019-04-14T09:28:32.307Z,16.62
2019-04-14T09:45:02.191Z,14.68
2019-04-14T09:47:32.609Z,15.25
2019-04-14T09:50:02.953Z,15.50
2019-04-14T09:52:33.310Z,17.70
2019-04-14T09:55:04.029Z,16.00
2019-04-14T09:57:34.380Z,16.20
2019-04-14T10:00:07.404Z,15.50
2019-04-14T10:02:37.840Z,14.38
2019-04-14T10:05:08.588Z,15.28
2019-04-14T10:07:38.956Z,15.60
2019-04-14T10:10:09.440Z,13.83
2019-04-14T10:12:39.793Z,16.20
2019-04-14T10:15:10.308Z,14.63
2019-04-14T10:17:40.655Z,14.40
2019-04-14T10:20:11.076Z,15.32
2019-04-14T10:22:41.454Z,14.13
2019-04-14T10:25:11.801Z,15.45
2019-04-14T10:27:42.144Z,15.50
2019-04-14T10:30:12.627Z,17.05
2019-04-14T10:32:42.971Z,15.55
2019-04-14T10:35:13.320Z,17.80
2019-04-14T10:37:43.719Z,12.90
2019-04-14T10:40:14.082Z,13.62
2019-04-14T10:42:44.448Z,14.38
2019-04-14T10:45:14.950Z,13.58
2019-04-14T10:47:45.389Z,14.85
2019-04-14T10:50:15.740Z,14.73
2019-04-14T10:52:46.493Z,13.35
2019-04-14T10:55:16.854Z,14.60
2019-04-14T10:57:49.265Z,12.53
2019-04-14T11:00:19.676Z,13.60
2019-04-14T11:02:50.031Z,15.20
2019-04-14T11:05:20.373Z,13.43
2019-04-14T11:07:50.726Z,12.58
2019-04-14T11:10:21.071Z,13.55
2019-04-14T11:12:51.435Z,11.78
2019-04-14T11:15:21.774Z,13.48
2019-04-14T11:17:52.145Z,11.48
2019-04-14T11:20:22.492Z,13.58
2019-04-14T11:23:02.842Z,11.95
2019-04-14T11:25:24.895Z,13.55
2019-04-14T11:27:55.254Z,15.28
2019-04-14T11:30:25.730Z,14.33
2019-04-14T11:32:57.656Z,12.20
2019-04-14T11:35:29.647Z,14.40
2019-04-14T11:38:10.350Z,14.83
2019-04-14T11:40:45.289Z,12.82
2019-04-14T11:43:15.650Z,12.37
2019-04-14T11:45:45.980Z,13.75
2019-04-14T11:48:16.338Z,11.55
2019-04-14T11:50:46.667Z,12.93
2019-04-14T11:53:17.045Z,12.03
2019-04-14T11:55:47.452Z,12.05
2019-04-14T11:58:17.808Z,13.22
2019-04-14T12:01:06.132Z,12.63
2019-04-14T12:03:50.370Z,13.03
2019-04-14T12:06:28.279Z,12.80
2019-04-14T12:09:16.391Z,11.88
2019-04-14T12:11:46.743Z,11.22
2019-04-14T12:14:17.097Z,11.80
2019-04-14T12:16:47.441Z,12.05
2019-04-14T12:19:17.787Z,11.55
2019-04-14T12:21:48.140Z,10.90
2019-04-14T12:24:18.479Z,12.47
2019-04-14T12:26:49.867Z,12.10
2019-04-14T12:29:21.479Z,12.95
2019-04-14T12:31:53.010Z,10.48
2019-04-14T12:34:23.445Z,12.23
2019-04-14T12:36:53.872Z,12.53
2019-04-14T12:39:25.302Z,12.15
2019-04-14T12:42:01.012Z,9.85
2019-04-14T12:44:49.588Z,13.43
2019-04-14T12:47:40.285Z,12.10
2019-04-14T12:50:23.223Z,15.35
2019-04-14T12:52:53.571Z,11.08
2019-04-14T12:55:23.930Z,16.07
2019-04-14T12:57:58.637Z,11.22
2019-04-14T13:00:36.395Z,11.45
2019-04-14T13:03:06.746Z,11.12
2019-04-14T13:05:37.165Z,11.20
2019-04-14T13:08:15.235Z,12.05
2019-04-14T13:10:45.748Z,11.10
2019-04-14T13:13:16.176Z,12.18
2019-04-14T13:15:46.528Z,9.78
2019-04-14T13:18:16.888Z,11.93
2019-04-14T13:20:47.225Z,10.80
2019-04-14T13:23:17.602Z,10.43
2019-04-14T13:25:47.954Z,9.30
2019-04-14T13:28:19.382Z,9.38
2019-04-14T13:30:51.021Z,10.72
2019-04-14T13:33:22.020Z,11.18
2019-04-14T13:35:52.368Z,11.75
2019-04-14T13:38:22.712Z,8.78
2019-04-14T13:40:53.058Z,9.85
2019-04-14T13:43:23.431Z,11.97
2019-04-14T13:45:53.766Z,11.83
2019-04-14T13:48:24.134Z,11.18
2019-04-14T13:50:54.482Z,11.38
2019-04-14T13:53:24.817Z,9.48
2019-04-14T13:55:55.174Z,9.68
2019-04-14T13:58:25.517Z,11.15
2019-04-14T14:00:57.377Z,9.80
2019-04-14T14:03:27.729Z,10.82
2019-04-14T14:05:58.080Z,10.10
2019-04-14T14:08:28.443Z,9.38
2019-04-14T14:11:08.193Z,10.40
2019-04-14T14:13:44.509Z,9.10
2019-04-14T14:16:31.666Z,10.32
2019-04-14T14:19:03.672Z,9.83
2019-04-14T14:21:38.345Z,11.40
2019-04-14T14:24:16.055Z,10.88
2019-04-14T14:26:48.043Z,10.93
2019-04-14T14:29:19.384Z,9.35
2019-04-14T14:31:50.188Z,9.38
2019-04-14T14:34:20.534Z,10.30
2019-04-14T14:36:51.024Z,9.25
2019-04-14T14:39:21.882Z,9.35
2019-04-14T14:41:52.220Z,11.95
2019-04-14T14:44:24.228Z,10.90
2019-04-14T14:47:02.181Z,12.23
2019-04-14T14:49:34.167Z,11.15
2019-04-14T14:54:58.403Z,12.05
2019-04-14T14:57:28.745Z,10.95
2019-04-14T14:59:59.100Z,11.68
2019-04-14T15:02:29.496Z,8.70
2019-04-14T15:04:59.829Z,10.53
2019-04-14T15:07:30.172Z,11.55
2019-04-14T15:10:00.522Z,11.20
2019-04-14T15:12:30.862Z,11.10
2019-04-14T15:15:01.218Z,11.18
2019-04-14T15:17:31.559Z,11.12
2019-04-14T15:20:01.955Z,10.98
2019-04-14T15:22:32.276Z,11.25
2019-04-14T15:25:02.688Z,12.25
2019-04-14T15:27:33.105Z,9.85
2019-04-14T15:30:05.571Z,11.43
2019-04-14T15:32:35.921Z,11.03
2019-04-14T15:35:07.595Z,10.98
2019-04-14T15:37:37.938Z,10.50
2019-04-14T15:40:08.727Z,10.95
2019-04-14T15:42:39.077Z,10.45
2019-04-14T15:45:12.470Z,11.53
2019-04-14T15:47:42.806Z,13.48
2019-04-14T15:50:15.041Z,13.03
2019-04-14T15:52:45.413Z,10.93
2019-04-14T15:55:17.416Z,19.15
2019-04-14T15:57:55.695Z,11.83
2019-04-14T16:00:36.516Z,11.78
2019-04-14T16:03:08.520Z,12.78
2019-04-14T16:05:43.235Z,10.72
2019-04-14T16:08:30.293Z,11.22
2019-04-14T16:11:03.288Z,9.35
2019-04-14T16:13:35.280Z,10.38
2019-04-14T16:31:19.785Z,9.23
2019-04-14T16:34:25.217Z,11.08
2019-04-14T16:36:56.304Z,10.95
2019-04-14T16:39:26.718Z,9.50
2019-04-14T16:41:57.083Z,10.50
2019-04-14T16:44:27.423Z,11.90
2019-04-14T16:46:57.807Z,12.70
2019-04-14T16:49:28.141Z,10.20
2019-04-14T16:52:00.131Z,9.68
2019-04-14T16:54:32.129Z,12.03
2019-04-14T16:57:20.248Z,12.00
2019-04-14T16:59:50.586Z,14.40
2019-04-14T17:02:20.955Z,12.40
2019-04-14T17:04:51.379Z,11.97
2019-04-14T17:07:21.723Z,11.40
2019-04-14T17:09:52.094Z,9.10
2019-04-14T17:12:22.426Z,9.60
2019-04-14T17:14:57.455Z,10.68
2019-04-14T17:17:37.376Z,11.12
2019-04-14T17:20:12.431Z,10.95
2019-04-14T17:22:47.366Z,10.13
2019-04-14T17:25:20.901Z,9.25
2019-04-14T17:54:29.262Z,13.93
2019-04-14T17:57:01.188Z,13.45
2019-04-14T17:59:33.173Z,12.40
2019-04-14T18:02:20.257Z,11.53
2019-04-14T18:04:58.374Z,15.03
2019-04-14T18:07:30.359Z,12.43
2019-04-14T18:10:05.263Z,15.50
2019-04-14T18:12:53.653Z,12.28
2019-04-14T18:30:28.284Z,13.38
2019-04-14T18:33:00.273Z,13.22
2019-04-14T18:35:34.948Z,12.40
2019-04-14T18:38:09.969Z,16.57
2019-04-14T18:40:44.710Z,14.60
2019-04-14T18:43:45.567Z,12.28
2019-04-14T18:46:23.246Z,14.00
2019-04-14T18:48:58.014Z,11.60
2019-04-14T18:51:30.999Z,15.03
2019-04-14T18:54:03.151Z,14.58
2019-04-14T18:56:44.238Z,13.18
2019-04-14T18:59:25.511Z,14.93
2019-04-14T19:01:57.243Z,12.65
2019-04-14T19:04:28.514Z,13.43
2019-04-14T19:06:58.946Z,13.80
2019-04-14T19:09:30.259Z,13.08
2019-04-14T19:12:08.072Z,11.85
2019-04-14T19:14:40.952Z,15.58
2019-04-14T19:17:12.940Z,12.40
2019-04-14T19:19:44.980Z,11.53
2019-04-14T19:22:15.280Z,15.28
2019-04-14T19:24:45.634Z,13.38
2019-04-14T19:27:15.987Z,14.18
2019-04-14T19:29:46.352Z,13.88
2019-04-14T19:32:17.008Z,14.00
2019-04-14T19:34:47.349Z,13.22
2019-04-14T19:37:17.746Z,15.13
2019-04-14T19:39:48.503Z,14.98
2019-04-14T19:42:18.864Z,12.78
2019-04-14T19:44:49.195Z,15.35
2019-04-14T19:47:19.537Z,14.33
2019-04-14T19:49:49.881Z,13.50
2019-04-14T19:52:20.225Z,15.53
2019-04-14T19:54:50.574Z,14.80
2019-04-14T19:57:20.912Z,15.35
2019-04-14T19:59:51.290Z,12.00
2019-04-14T20:02:21.625Z,16.65
2019-04-14T20:04:52.926Z,13.80
2019-04-14T20:07:31.097Z,14.45
2019-04-14T20:10:01.534Z,13.43
2019-04-14T20:12:31.866Z,14.47
2019-04-14T20:15:02.281Z,14.15
2019-04-14T20:17:37.442Z,14.07
2019-04-14T20:20:22.294Z,15.35
2019-04-14T20:23:06.303Z,15.70
2019-04-14T20:25:54.595Z,15.32
2019-04-14T20:28:42.169Z,14.70
2019-04-14T20:31:26.345Z,14.90
2019-04-14T20:33:56.711Z,17.12
2019-04-14T20:36:27.077Z,12.80
2019-04-14T20:38:57.425Z,18.65
2019-04-14T20:41:27.758Z,14.98
2019-04-14T20:43:58.107Z,14.78
2019-04-14T20:46:28.457Z,15.88
2019-04-14T20:48:58.882Z,14.07
2019-04-14T20:51:29.230Z,17.20
2019-04-14T20:53:59.700Z,17.77
2019-04-14T20:56:30.031Z,18.90
2019-04-14T20:59:00.382Z,17.80
2019-04-14T21:01:32.421Z,13.98
2019-04-14T21:04:04.408Z,15.08
2019-04-14T21:06:36.856Z,16.00
2019-04-14T21:09:09.176Z,16.32
2019-04-14T21:11:50.334Z,14.93
2019-04-14T21:14:25.024Z,14.98
2019-04-14T21:19:49.414Z,15.35
2019-04-14T21:22:24.091Z,14.58
2019-04-14T21:25:12.432Z,16.35
2019-04-14T21:27:50.332Z,15.48
2019-04-14T21:30:25.122Z,14.07
2019-04-14T21:33:03.267Z,12.58
2019-04-14T21:35:47.341Z,15.08
2019-04-14T21:38:19.339Z,14.18
2019-04-14T21:40:53.975Z,13.13
2019-04-14T21:43:24.315Z,15.23
2019-04-14T21:45:54.658Z,12.95
2019-04-14T21:48:25.001Z,15.30
2019-04-14T21:50:55.342Z,13.80
2019-04-14T21:53:25.690Z,14.98
2019-04-14T21:55:56.029Z,14.45
2019-04-14T21:58:31.194Z,18.45
2019-04-14T22:01:36.146Z,14.90
2019-04-14T22:04:23.136Z,12.37
2019-04-14T22:07:03.697Z,14.90
2019-04-14T22:09:36.122Z,14.78
2019-04-14T22:12:07.602Z,16.42
2019-04-14T22:14:37.945Z,15.83
2019-04-14T22:17:08.296Z,14.83
2019-04-14T22:19:38.649Z,13.90
2019-04-14T22:22:09.050Z,14.63
2019-04-14T22:24:39.416Z,13.75
2019-04-14T22:27:09.764Z,14.25
2019-04-14T22:29:40.097Z,13.48
2019-04-14T22:32:10.448Z,16.80
2019-04-14T22:34:40.787Z,16.48
2019-04-14T22:37:11.127Z,16.73
2019-04-14T22:39:41.466Z,15.48
2019-04-14T22:42:11.828Z,14.50
2019-04-14T22:44:42.162Z,17.15
2019-04-14T22:47:12.512Z,14.95
2019-04-14T22:49:42.860Z,15.28
2019-04-14T22:52:13.230Z,13.03
2019-04-14T22:54:43.602Z,13.48
2019-04-14T22:57:13.944Z,16.95
2019-04-14T22:59:44.278Z,13.78
2019-04-14T23:02:16.263Z,13.28
2019-04-14T23:04:48.243Z,15.75
2019-04-14T23:07:38.651Z,13.93
2019-04-14T23:10:10.773Z,16.27
2019-04-14T23:12:51.697Z,17.02
2019-04-14T23:15:35.925Z,16.12
2019-04-14T23:18:13.827Z,15.20
2019-04-14T23:20:48.924Z,13.43
2019-04-14T23:23:20.922Z,14.50
2019-04-14T23:25:51.279Z,16.60
2019-04-14T23:28:21.699Z,15.55
2019-04-14T23:30:52.029Z,12.23
2019-04-14T23:33:22.398Z,14.95
2019-04-14T23:35:52.815Z,13.35
2019-04-14T23:38:23.148Z,14.03
2019-04-14T23:40:53.493Z,14.03
2019-04-14T23:43:23.835Z,12.75
2019-04-14T23:45:54.197Z,14.73
2019-04-14T23:48:24.588Z,13.53
2019-04-14T23:50:54.925Z,14.58
2019-04-14T23:53:25.268Z,15.15
2019-04-14T23:55:55.633Z,14.98
2019-04-14T23:58:25.969Z,14.55
